Station History


Daily Summary for February 2, 2012 Units:  English    Metric   Both
« Previous Day
Next Day »
Daily Weekly Monthly Yearly Custom
  High: Low: Average:
Temperature: 62.5 °F 38.8 °F 47.8 °F
Dew Point: 49.4 °F 37.5 °F 42.9 °F
Humidity: 98% 56% 85%
Wind Speed: 4.0mph 0.0mph 2mph
Wind Gust: 4.0mph - -
Wind- - SSW
Pressure: 30.20 in 29.98 in -
Precipitation: 0.00 in    
Historical Graphs
 
 
Tabular Data for February 2, 2012
Time Temperature Dew Point Pressure Wind Wind Speed Wind Gust Humidity Rainfall Rate (Hourly)
00:02 42.9 °F 41.0 °F 30.19 in Calm     93% 0.00 in
00:07 42.6 °F 40.7 °F 30.19 in Calm     93% 0.00 in
00:12 42.5 °F 40.9 °F 30.20 in Calm     94% 0.00 in
00:17 42.4 °F 40.8 °F 30.20 in Calm     94% 0.00 in
00:18 42.4 °F 40.8 °F 30.20 in Calm     94% 0.00 in
00:23 42.5 °F 41.2 °F 30.20 in Calm     95% 0.00 in
00:28 42.7 °F 41.4 °F 30.20 in Calm     95% 0.00 in
00:33 42.6 °F 41.3 °F 30.20 in Calm     95% 0.00 in
00:38 42.5 °F 40.9 °F 30.20 in Calm     94% 0.00 in
00:43 42.3 °F 40.7 °F 30.20 in Calm     94% 0.00 in
00:48 42.0 °F 40.4 °F 30.19 in Calm     94% 0.00 in
00:53 41.7 °F 40.1 °F 30.19 in Calm     94% 0.00 in
00:58 41.3 °F 39.7 °F 30.19 in Calm     94% 0.00 in
01:03 41.2 °F 39.6 °F 30.19 in Calm     94% 0.00 in
01:08 41.0 °F 39.4 °F 30.19 in Calm     94% 0.00 in
01:13 40.8 °F 39.2 °F 30.20 in Calm     94% 0.00 in
01:18 40.7 °F 39.1 °F 30.20 in Calm     94% 0.00 in
01:23 40.6 °F 39.0 °F 30.20 in Calm     94% 0.00 in
01:28 40.5 °F 39.2 °F 30.20 in Calm     95% 0.00 in
01:33 40.6 °F 39.3 °F 30.20 in Calm     95% 0.00 in
01:38 40.7 °F 39.4 °F 30.20 in Calm     95% 0.00 in
01:43 40.7 °F 39.4 °F 30.20 in Calm     95% 0.00 in
01:48 40.7 °F 39.6 °F 30.20 in Calm     96% 0.00 in
01:53 40.7 °F 39.6 °F 30.20 in Calm     96% 0.00 in
01:58 40.7 °F 39.6 °F 30.20 in Calm     96% 0.00 in
02:03 40.7 °F 39.4 °F 30.19 in Calm     95% 0.00 in
02:08 40.6 °F 39.3 °F 30.19 in Calm     95% 0.00 in
02:13 40.5 °F 39.2 °F 30.19 in Calm     95% 0.00 in
02:18 40.4 °F 39.1 °F 30.19 in Calm     95% 0.00 in
02:23 40.3 °F 39.0 °F 30.19 in Calm     95% 0.00 in
02:28 40.4 °F 39.1 °F 30.19 in Calm     95% 0.00 in
02:33 40.4 °F 39.4 °F 30.19 in Calm     96% 0.00 in
02:38 40.6 °F 39.5 °F 30.19 in Calm     96% 0.00 in
02:43 40.6 °F 39.5 °F 30.19 in Calm     96% 0.00 in
02:48 40.5 °F 39.4 °F 30.19 in Calm     96% 0.00 in
02:53 40.4 °F 39.4 °F 30.19 in Calm     96% 0.00 in
02:58 40.3 °F 39.3 °F 30.19 in Calm     96% 0.00 in
03:03 40.2 °F 39.2 °F 30.19 in Calm     96% 0.00 in
03:08 40.1 °F 38.8 °F 30.19 in Calm     95% 0.00 in
03:13 39.9 °F 38.9 °F 30.19 in Calm     96% 0.00 in
03:18 39.9 °F 38.9 °F 30.19 in Calm     96% 0.00 in
03:23 39.9 °F 38.9 °F 30.19 in Calm     96% 0.00 in
03:28 39.8 °F 38.8 °F 30.18 in Calm     96% 0.00 in
03:33 39.7 °F 38.7 °F 30.18 in Calm     96% 0.00 in
03:39 39.6 °F 38.6 °F 30.18 in Calm     96% 0.00 in
03:44 39.5 °F 38.5 °F 30.18 in Calm     96% 0.00 in
03:49 39.4 °F 38.4 °F 30.18 in Calm     96% 0.00 in
03:54 39.4 °F 38.4 °F 30.19 in Calm     96% 0.00 in
03:59 39.5 °F 38.5 °F 30.18 in Calm     96% 0.00 in
04:04 39.5 °F 38.5 °F 30.18 in Calm     96% 0.00 in
04:09 39.5 °F 38.5 °F 30.18 in Calm     96% 0.00 in
04:14 39.6 °F 38.6 °F 30.18 in Calm     96% 0.00 in
04:19 39.5 °F 38.5 °F 30.18 in Calm     96% 0.00 in
04:24 39.4 °F 38.4 °F 30.18 in Calm     96% 0.00 in
04:29 39.3 °F 38.3 °F 30.18 in Calm     96% 0.00 in
04:34 39.2 °F 38.2 °F 30.18 in Calm     96% 0.00 in
04:39 39.1 °F 38.1 °F 30.18 in Calm     96% 0.00 in
04:44 39.1 °F 38.1 °F 30.18 in Calm     96% 0.00 in
04:49 39.2 °F 38.2 °F 30.18 in Calm     96% 0.00 in
04:54 39.2 °F 38.4 °F 30.18 in Calm     97% 0.00 in
04:59 39.2 °F 38.2 °F 30.18 in Calm     96% 0.00 in
05:04 39.1 °F 38.1 °F 30.18 in Calm     96% 0.00 in
05:09 39.5 °F 38.7 °F 30.18 in Calm     97% 0.00 in
05:14 39.7 °F 38.9 °F 30.18 in Calm     97% 0.00 in
05:19 39.8 °F 39.0 °F 30.18 in Calm     97% 0.00 in
05:24 39.6 °F 38.8 °F 30.18 in Calm     97% 0.00 in
05:29 39.3 °F 38.5 °F 30.18 in Calm     97% 0.00 in
05:34 39.2 °F 38.4 °F 30.18 in Calm     97% 0.00 in
05:39 39.0 °F 38.0 °F 30.18 in Calm     96% 0.00 in
05:44 38.8 °F 37.8 °F 30.18 in Calm     96% 0.00 in
05:49 38.9 °F 38.1 °F 30.18 in Calm     97% 0.00 in
05:54 39.3 °F 38.5 °F 30.18 in Calm     97% 0.00 in
05:59 39.8 °F 39.0 °F 30.17 in Calm     97% 0.00 in
06:04 39.9 °F 39.1 °F 30.17 in Calm     97% 0.00 in
06:09 39.8 °F 39.0 °F 30.18 in Calm     97% 0.00 in
06:14 39.8 °F 39.0 °F 30.18 in Calm     97% 0.00 in
06:19 39.9 °F 39.1 °F 30.18 in Calm     97% 0.00 in
06:24 40.2 °F 39.4 °F 30.18 in Calm     97% 0.00 in
06:29 40.7 °F 39.9 °F 30.17 in Calm     97% 0.00 in
06:34 41.1 °F 40.6 °F 30.17 in Calm     98% 0.00 in
06:39 41.5 °F 41.0 °F 30.18 in Calm     98% 0.00 in
06:44 41.7 °F 41.2 °F 30.18 in Calm     98% 0.00 in
06:49 41.7 °F 41.2 °F 30.18 in Calm     98% 0.00 in
06:54 41.7 °F 41.2 °F 30.18 in Calm     98% 0.00 in
06:59 41.8 °F 41.0 °F 30.18 in Calm     97% 0.00 in
07:04 41.9 °F 41.1 °F 30.18 in Calm     97% 0.00 in
07:09 42.1 °F 41.6 °F 30.18 in Calm     98% 0.00 in
07:14 42.3 °F 41.8 °F 30.18 in Calm     98% 0.00 in
07:19 42.4 °F 41.9 °F 30.18 in Calm     98% 0.00 in
07:24 42.5 °F 42.0 °F 30.18 in Calm     98% 0.00 in
07:29 42.5 °F 41.7 °F 30.18 in Calm     97% 0.00 in
07:34 42.5 °F 41.7 °F 30.18 in Calm     97% 0.00 in
07:39 42.7 °F 42.2 °F 30.18 in Calm     98% 0.00 in
07:44 43.0 °F 42.5 °F 30.17 in Calm     98% 0.00 in
07:49 43.4 °F 42.9 °F 30.17 in Calm     98% 0.00 in
07:54 43.6 °F 43.1 °F 30.17 in Calm     98% 0.00 in
07:59 43.9 °F 43.4 °F 30.17 in Calm     98% 0.00 in
08:04 44.4 °F 43.9 °F 30.17 in Calm     98% 0.00 in
08:09 44.7 °F 44.2 °F 30.17 in Calm     98% 0.00 in
08:14 45.0 °F 44.5 °F 30.17 in Calm     98% 0.00 in
08:19 45.3 °F 44.8 °F 30.16 in Calm     98% 0.00 in
08:24 45.4 °F 44.9 °F 30.16 in Calm     98% 0.00 in
08:29 45.6 °F 45.1 °F 30.16 in Calm     98% 0.00 in
08:34 45.9 °F 45.4 °F 30.16 in Calm     98% 0.00 in
08:39 46.1 °F 45.6 °F 30.16 in Calm     98% 0.00 in
08:44 46.4 °F 45.9 °F 30.16 in Calm     98% 0.00 in
08:49 46.7 °F 46.2 °F 30.16 in Calm     98% 0.00 in
08:54 47.0 °F 46.5 °F 30.16 in Calm     98% 0.00 in
08:59 47.2 °F 46.4 °F 30.15 in Calm     97% 0.00 in
09:04 47.3 °F 46.5 °F 30.15 in Calm     97% 0.00 in
09:09 47.6 °F 46.5 °F 30.15 in Calm     96% 0.00 in
09:14 48.1 °F 47.0 °F 30.15 in Calm     96% 0.00 in
09:19 48.6 °F 47.5 °F 30.15 in Calm     96% 0.00 in
09:24 49.0 °F 47.3 °F 30.15 in Calm     94% 0.00 in
09:29 49.3 °F 47.4 °F 30.15 in SSW 1.1 mph 1.1 mph 93% 0.00 in
09:34 49.6 °F 47.4 °F 30.15 in Calm     92% 0.00 in
09:39 50.0 °F 47.5 °F 30.15 in Calm     91% 0.00 in
09:44 50.1 °F 47.3 °F 30.15 in SSE 1.1 mph 1.1 mph 90% 0.00 in
09:49 50.3 °F 47.5 °F 30.15 in Calm     90% 0.00 in
09:54 50.5 °F 47.4 °F 30.15 in South 2.3 mph 2.3 mph 89% 0.00 in
09:59 50.6 °F 47.5 °F 30.14 in SSE 1.1 mph   89% 0.00 in
10:04 50.9 °F 47.8 °F 30.14 in Calm   0.3 mph 89% 0.00 in
10:09 51.2 °F 47.8 °F 30.14 in SW 1.0 mph 1.0 mph 88% 0.00 in
10:14 51.4 °F 47.7 °F 30.14 in SSW 1.1 mph 1.1 mph 87% 0.00 in
10:19 51.7 °F 48.0 °F 30.14 in SSE 1.1 mph   87% 0.00 in
10:24 52.1 °F 48.3 °F 30.14 in SSW 1.0 mph 1.0 mph 87% 0.00 in
10:29 52.4 °F 48.6 °F 30.14 in Calm     87% 0.00 in
10:34 53.0 °F 48.6 °F 30.14 in SSW 1.1 mph 1.1 mph 85% 0.00 in
10:39 53.3 °F 48.9 °F 30.14 in SSW 3.5 mph 3.5 mph 85% 0.00 in
10:44 53.7 °F 49.0 °F 30.13 in South 1.1 mph 1.1 mph 84% 0.00 in
10:49 53.8 °F 48.8 °F 30.13 in SW 1.1 mph 1.1 mph 83% 0.00 in
10:54 53.9 °F 48.5 °F 30.13 in SSW 3.5 mph 3.5 mph 82% 0.00 in
10:59 54.0 °F 48.6 °F 30.13 in SW 1.1 mph 1.1 mph 82% 0.00 in
11:04 54.1 °F 48.7 °F 30.12 in SW 1.1 mph 1.1 mph 82% 0.00 in
11:09 54.6 °F 48.9 °F 30.12 in SW 2.0 mph 2.0 mph 81% 0.00 in
11:14 55.1 °F 48.7 °F 30.12 in WSW 2.3 mph 2.3 mph 79% 0.00 in
11:19 55.8 °F 49.0 °F 30.11 in South 1.1 mph 1.1 mph 78% 0.00 in
11:24 56.4 °F 49.3 °F 30.11 in SW 1.1 mph 1.1 mph 77% 0.00 in
11:29 56.3 °F 49.2 °F 30.11 in SSW 4.0 mph 4.0 mph 77% 0.00 in
11:35 56.1 °F 49.3 °F 30.10 in SSW 3.0 mph 3.0 mph 78% 0.00 in
11:40 56.0 °F 49.2 °F 30.10 in South 2.3 mph 2.3 mph 78% 0.00 in
11:45 56.0 °F 48.5 °F 30.10 in SSW 2.3 mph 2.3 mph 76% 0.00 in
11:50 56.2 °F 49.1 °F 30.10 in SW 2.3 mph 2.3 mph 77% 0.00 in
11:55 56.6 °F 49.1 °F 30.09 in WSW 2.3 mph 2.3 mph 76% 0.00 in
12:00 56.8 °F 49.0 °F 30.09 in South 1.1 mph 1.1 mph 75% 0.00 in
12:05 56.9 °F 48.7 °F 30.09 in SSW 2.3 mph 2.3 mph 74% 0.00 in
12:10 56.9 °F 48.7 °F 30.09 in WNW 3.5 mph   74% 0.00 in
12:15 56.9 °F 48.7 °F 30.08 in South 2.3 mph 2.3 mph 74% 0.00 in
12:16 56.9 °F 48.7 °F 30.08 in ESE 3.5 mph 3.5 mph 74% 0.00 in
12:21 57.2 °F 49.0 °F 30.08 in SW 1.1 mph 1.1 mph 74% 0.00 in
12:26 57.4 °F 48.8 °F 30.08 in SW 4.0 mph 4.0 mph 73% 0.00 in
12:31 57.6 °F 49.4 °F 30.08 in NNW 1.1 mph 1.1 mph 74% 0.00 in
12:36 58.3 °F 48.9 °F 30.07 in WNW 3.5 mph 3.5 mph 71% 0.00 in
12:41 58.3 °F 48.6 °F 30.07 in WNW 3.0 mph 3.0 mph 70% 0.00 in
12:46 58.5 °F 48.4 °F 30.07 in SW 2.3 mph 2.3 mph 69% 0.00 in
12:51 58.7 °F 48.6 °F 30.06 in SSW 2.0 mph 2.0 mph 69% 0.00 in
12:56 58.8 °F 48.6 °F 30.06 in SE 2.3 mph 2.3 mph 69% 0.00 in
13:01 59.0 °F 48.4 °F 30.06 in SW 2.0 mph 2.0 mph 68% 0.00 in
13:06 59.2 °F 49.0 °F 30.05 in West 2.3 mph 2.3 mph 69% 0.00 in
13:11 59.4 °F 48.8 °F 30.05 in SSE 2.3 mph 2.3 mph 68% 0.00 in
13:16 59.6 °F 48.2 °F 30.05 in South 2.3 mph 2.3 mph 66% 0.00 in
13:21 59.6 °F 48.6 °F 30.05 in SW 3.5 mph 3.5 mph 67% 0.00 in
13:26 59.3 °F 48.3 °F 30.05 in SSE 2.3 mph 2.3 mph 67% 0.00 in
13:31 59.6 °F 48.2 °F 30.04 in SSW 2.3 mph 2.3 mph 66% 0.00 in
13:38 60.1 °F 48.3 °F 30.04 in West 2.0 mph 2.0 mph 65% 0.00 in
13:43 60.3 °F 48.5 °F 30.04 in ENE 2.3 mph 2.3 mph 65% 0.00 in
13:55 60.8 °F 48.1 °F 30.03 in WSW 2.3 mph 2.3 mph 63% 0.00 in
14:00 60.9 °F 48.6 °F 30.03 in SSW 3.5 mph 3.5 mph 64% 0.00 in
14:05 61.0 °F 48.3 °F 30.03 in WSW 1.0 mph   63% 0.00 in
14:10 60.9 °F 48.2 °F 30.02 in SSW 3.5 mph 3.5 mph 63% 0.00 in
14:15 60.8 °F 47.7 °F 30.02 in SSW 3.5 mph 3.5 mph 62% 0.00 in
14:20 61.0 °F 47.9 °F 30.02 in South 3.5 mph 3.5 mph 62% 0.00 in
14:25 61.1 °F 48.0 °F 30.02 in West 2.3 mph 2.3 mph 62% 0.00 in
14:30 61.1 °F 48.0 °F 30.02 in SW 3.5 mph 3.5 mph 62% 0.00 in
14:35 61.0 °F 47.9 °F 30.01 in SE 2.3 mph 2.3 mph 62% 0.00 in
14:40 61.3 °F 48.2 °F 30.01 in West 1.1 mph 1.1 mph 62% 0.00 in
14:45 61.6 °F 47.6 °F 30.01 in SW 2.3 mph 2.3 mph 60% 0.00 in
14:46 61.6 °F 47.6 °F 30.01 in SE 2.3 mph 2.3 mph 60% 0.00 in
14:51 62.0 °F 48.4 °F 30.01 in WSW 3.5 mph 3.5 mph 61% 0.00 in
14:56 61.8 °F 47.3 °F 30.01 in SSW 3.5 mph 3.5 mph 59% 0.00 in
15:01 61.4 °F 47.4 °F 30.00 in WSW 1.1 mph 1.1 mph 60% 0.00 in
15:06 61.6 °F 47.1 °F 30.00 in West 1.1 mph 1.1 mph 59% 0.00 in
15:11 61.8 °F 47.8 °F 30.00 in SSW 2.3 mph 2.3 mph 60% 0.00 in
15:16 62.0 °F 47.5 °F 30.00 in SW 1.1 mph   59% 0.00 in
15:21 61.9 °F 47.0 °F 30.00 in North 1.1 mph 1.1 mph 58% 0.00 in
15:26 61.8 °F 46.9 °F 30.00 in NW 2.3 mph 2.3 mph 58% 0.00 in
15:31 61.7 °F 47.2 °F 30.00 in SSW 3.5 mph 3.5 mph 59% 0.00 in
15:36 61.9 °F 47.0 °F 29.99 in South 1.1 mph 1.1 mph 58% 0.00 in
15:41 62.0 °F 47.0 °F 29.99 in South 1.1 mph 1.1 mph 58% 0.00 in
15:46 62.4 °F 47.0 °F 29.99 in SSW 1.1 mph 1.1 mph 57% 0.00 in
15:51 62.5 °F 46.6 °F 29.99 in SSE 1.1 mph 1.1 mph 56% 0.00 in
15:56 62.3 °F 46.4 °F 29.99 in SSW 2.0 mph 2.0 mph 56% 0.00 in
16:01 62.2 °F 46.8 °F 29.99 in SSW 3.5 mph 3.5 mph 57% 0.00 in
16:06 61.8 °F 45.9 °F 29.99 in SSE 1.1 mph 1.1 mph 56% 0.00 in
16:11 61.4 °F 45.6 °F 29.99 in South 1.1 mph 1.1 mph 56% 0.00 in
16:16 61.0 °F 45.7 °F 29.99 in SSW 2.3 mph 2.3 mph 57% 0.00 in
16:21 60.5 °F 45.6 °F 29.99 in SSW 1.1 mph 1.1 mph 58% 0.00 in
16:26 60.1 °F 45.3 °F 29.99 in South 1.1 mph 1.1 mph 58% 0.00 in
16:31 59.5 °F 45.2 °F 29.99 in SSW 1.1 mph 1.1 mph 59% 0.00 in
16:36 59.1 °F 45.2 °F 29.98 in WNW 1.1 mph 1.1 mph 60% 0.00 in
16:41 58.8 °F 44.9 °F 29.99 in SSW 1.1 mph 1.1 mph 60% 0.00 in
16:46 58.3 °F 44.5 °F 29.99 in SSW 1.1 mph   60% 0.00 in
16:51 58.0 °F 44.2 °F 29.99 in SSW 1.1 mph   60% 0.00 in
16:56 57.7 °F 44.3 °F 29.99 in Calm     61% 0.00 in
17:01 57.5 °F 44.6 °F 29.99 in SW 1.1 mph   62% 0.00 in
17:06 57.2 °F 44.7 °F 29.99 in Calm     63% 0.00 in
17:11 56.8 °F 44.3 °F 29.99 in SW 1.1 mph 1.1 mph 63% 0.00 in
17:16 56.5 °F 44.0 °F 29.99 in Calm     63% 0.00 in
17:21 56.1 °F 44.1 °F 29.99 in Calm     64% 0.00 in
17:26 55.7 °F 43.7 °F 29.99 in SW 1.1 mph   64% 0.00 in
17:31 55.3 °F 43.7 °F 29.99 in Calm     65% 0.00 in
17:36 54.9 °F 43.7 °F 29.99 in Calm     66% 0.00 in
17:41 54.5 °F 43.8 °F 29.99 in Calm     67% 0.00 in
17:46 54.0 °F 43.7 °F 29.99 in Calm     68% 0.00 in
17:51 53.6 °F 43.3 °F 29.99 in Calm     68% 0.00 in
17:56 53.1 °F 43.6 °F 30.00 in Calm     70% 0.00 in
18:01 52.5 °F 43.0 °F 29.99 in Calm     70% 0.00 in
18:02 52.4 °F 43.3 °F 29.99 in Calm     71% 0.00 in
18:07 51.8 °F 43.1 °F 30.00 in Calm     72% 0.00 in
18:12 51.3 °F 42.9 °F 29.99 in Calm     73% 0.00 in
18:17 50.7 °F 42.7 °F 29.99 in Calm     74% 0.00 in
18:22 50.2 °F 42.9 °F 29.99 in Calm     76% 0.00 in
18:27 49.8 °F 42.9 °F 29.99 in Calm     77% 0.00 in
18:32 49.5 °F 42.9 °F 29.99 in Calm     78% 0.00 in
18:37 49.2 °F 43.0 °F 29.99 in Calm     79% 0.00 in
18:42 48.9 °F 42.7 °F 29.99 in Calm     79% 0.00 in
18:47 48.4 °F 42.5 °F 29.99 in Calm     80% 0.00 in
18:52 48.3 °F 42.7 °F 29.99 in Calm     81% 0.00 in
18:57 48.1 °F 42.5 °F 29.99 in Calm     81% 0.00 in
19:02 47.8 °F 41.9 °F 29.99 in Calm     80% 0.00 in
19:07 47.3 °F 41.8 °F 29.99 in Calm     81% 0.00 in
19:12 47.0 °F 42.1 °F 29.99 in Calm     83% 0.00 in
19:17 46.9 °F 42.3 °F 29.99 in Calm     84% 0.00 in
19:22 46.7 °F 42.1 °F 29.99 in Calm     84% 0.00 in
19:27 46.3 °F 41.7 °F 29.99 in Calm     84% 0.00 in
19:32 46.0 °F 41.7 °F 29.99 in Calm     85% 0.00 in
19:37 45.7 °F 41.4 °F 29.99 in Calm     85% 0.00 in
19:42 45.3 °F 41.1 °F 29.99 in Calm     85% 0.00 in
19:47 45.0 °F 41.1 °F 29.99 in Calm     86% 0.00 in
19:52 44.7 °F 40.8 °F 29.99 in Calm     86% 0.00 in
19:57 44.4 °F 40.5 °F 29.99 in Calm     86% 0.00 in
20:02 44.3 °F 40.7 °F 29.99 in Calm     87% 0.00 in
20:07 44.1 °F 40.8 °F 29.99 in Calm     88% 0.00 in
20:12 44.0 °F 41.0 °F 29.99 in Calm     89% 0.00 in
20:17 43.9 °F 40.9 °F 29.99 in Calm     89% 0.00 in
20:22 43.9 °F 41.2 °F 29.99 in Calm     90% 0.00 in
20:27 43.8 °F 41.1 °F 29.99 in Calm     90% 0.00 in
20:32 43.7 °F 41.0 °F 29.99 in Calm     90% 0.00 in
20:37 43.5 °F 40.5 °F 29.99 in Calm     89% 0.00 in
20:42 43.2 °F 40.2 °F 29.99 in Calm     89% 0.00 in
20:47 43.0 °F 40.0 °F 29.99 in Calm     89% 0.00 in
20:52 42.9 °F 40.2 °F 29.99 in Calm     90% 0.00 in
20:57 42.8 °F 40.4 °F 29.99 in Calm     91% 0.00 in
21:00 42.7 °F 40.0 °F 29.99 in Calm     90% 0.00 in
21:01 42.7 °F 40.0 °F 29.99 in Calm     90% 0.00 in
21:06 42.6 °F 40.2 °F 29.99 in Calm     91% 0.00 in
21:11 42.5 °F 40.1 °F 29.99 in Calm     91% 0.00 in
21:16 42.4 °F 40.0 °F 29.99 in Calm     91% 0.00 in
21:21 42.4 °F 40.0 °F 29.99 in Calm     91% 0.00 in
21:26 42.3 °F 39.9 °F 29.98 in Calm     91% 0.00 in
21:31 42.3 °F 40.1 °F 29.98 in Calm     92% 0.00 in
21:36 42.2 °F 40.0 °F 29.99 in Calm     92% 0.00 in
21:41 42.0 °F 39.6 °F 29.99 in Calm     91% 0.00 in
21:46 41.8 °F 39.4 °F 29.99 in Calm     91% 0.00 in
21:51 41.9 °F 39.7 °F 29.99 in Calm     92% 0.00 in
21:56 42.3 °F 40.4 °F 29.99 in Calm     93% 0.00 in
22:01 42.3 °F 40.1 °F 29.99 in Calm     92% 0.00 in
22:06 42.1 °F 39.9 °F 29.99 in Calm     92% 0.00 in
22:11 42.1 °F 40.2 °F 29.99 in Calm     93% 0.00 in
22:16 42.0 °F 39.8 °F 29.99 in Calm     92% 0.00 in
22:21 41.8 °F 39.9 °F 29.99 in Calm     93% 0.00 in
22:26 41.7 °F 39.5 °F 29.99 in Calm     92% 0.00 in
22:32 41.6 °F 39.4 °F 29.99 in Calm     92% 0.00 in
22:36 41.4 °F 39.5 °F 29.99 in Calm     93% 0.00 in
22:42 41.2 °F 39.3 °F 29.99 in Calm     93% 0.00 in
22:47 40.9 °F 39.0 °F 29.99 in Calm     93% 0.00 in
22:52 40.7 °F 38.6 °F 29.99 in Calm     92% 0.00 in
22:57 40.6 °F 38.7 °F 29.99 in Calm     93% 0.00 in
23:02 40.6 °F 38.7 °F 29.99 in Calm     93% 0.00 in
23:07 40.7 °F 39.1 °F 29.99 in Calm     94% 0.00 in
23:12 40.6 °F 38.7 °F 30.00 in Calm     93% 0.00 in
23:17 40.3 °F 38.4 °F 30.00 in Calm     93% 0.00 in
23:22 40.0 °F 38.1 °F 30.00 in Calm     93% 0.00 in
23:27 39.8 °F 37.9 °F 30.00 in Calm     93% 0.00 in
23:32 39.7 °F 37.8 °F 30.00 in Calm     93% 0.00 in
23:37 39.8 °F 38.2 °F 30.00 in Calm     94% 0.00 in
23:42 39.7 °F 38.1 °F 29.99 in Calm     94% 0.00 in
23:47 39.5 °F 37.6 °F 30.00 in Calm     93% 0.00 in
23:52 39.3 °F 37.7 °F 30.00 in Calm     94% 0.00 in
23:57 39.1 °F 37.5 °F 30.00 in Calm     94% 0.00 in
Compliments of Weather Underground